sensor_id;sensor_type;location;lat;lon;timestamp;P1;durP1;ratioP1;P2;durP2;ratioP2
37955;SDS011;23776;51.592;7.180;2023-09-19T00:00:30;9.25;;;2.92;;
37955;SDS011;23776;51.592;7.180;2023-09-19T00:02:57;12.40;;;3.22;;
37955;SDS011;23776;51.592;7.180;2023-09-19T00:05:24;13.27;;;3.20;;
37955;SDS011;23776;51.592;7.180;2023-09-19T00:07:55;11.95;;;3.30;;
37955;SDS011;23776;51.592;7.180;2023-09-19T00:10:23;12.95;;;3.53;;
37955;SDS011;23776;51.592;7.180;2023-09-19T00:12:58;10.27;;;3.33;;
37955;SDS011;23776;51.592;7.180;2023-09-19T00:15:25;9.63;;;3.13;;
37955;SDS011;23776;51.592;7.180;2023-09-19T00:17:53;9.65;;;2.95;;
37955;SDS011;23776;51.592;7.180;2023-09-19T00:20:20;19.10;;;3.35;;
37955;SDS011;23776;51.592;7.180;2023-09-19T00:22:48;11.82;;;3.05;;
37955;SDS011;23776;51.592;7.180;2023-09-19T00:25:17;14.75;;;3.50;;
37955;SDS011;23776;51.592;7.180;2023-09-19T00:27:43;15.23;;;3.47;;
37955;SDS011;23776;51.592;7.180;2023-09-19T00:30:10;15.82;;;3.53;;
37955;SDS011;23776;51.592;7.180;2023-09-19T00:32:45;18.02;;;4.28;;
37955;SDS011;23776;51.592;7.180;2023-09-19T00:35:12;18.73;;;3.58;;
37955;SDS011;23776;51.592;7.180;2023-09-19T00:37:41;19.88;;;3.30;;
37955;SDS011;23776;51.592;7.180;2023-09-19T00:40:07;13.82;;;3.30;;
37955;SDS011;23776;51.592;7.180;2023-09-19T00:42:40;9.63;;;2.72;;
37955;SDS011;23776;51.592;7.180;2023-09-19T00:45:07;12.68;;;3.00;;
37955;SDS011;23776;51.592;7.180;2023-09-19T00:47:49;11.82;;;2.78;;
37955;SDS011;23776;51.592;7.180;2023-09-19T00:50:19;11.45;;;2.50;;
37955;SDS011;23776;51.592;7.180;2023-09-19T00:52:47;14.60;;;2.95;;
37955;SDS011;23776;51.592;7.180;2023-09-19T00:55:15;13.32;;;3.30;;
37955;SDS011;23776;51.592;7.180;2023-09-19T00:57:44;15.18;;;3.47;;
37955;SDS011;23776;51.592;7.180;2023-09-19T01:00:11;17.27;;;3.90;;
37955;SDS011;23776;51.592;7.180;2023-09-19T01:02:41;12.88;;;2.92;;
37955;SDS011;23776;51.592;7.180;2023-09-19T01:05:11;14.63;;;2.95;;
37955;SDS011;23776;51.592;7.180;2023-09-19T01:07:40;12.98;;;3.00;;
37955;SDS011;23776;51.592;7.180;2023-09-19T01:10:07;15.55;;;3.17;;
37955;SDS011;23776;51.592;7.180;2023-09-19T01:12:49;11.48;;;2.88;;
37955;SDS011;23776;51.592;7.180;2023-09-19T01:29:44;14.00;;;3.03;;
37955;SDS011;23776;51.592;7.180;2023-09-19T01:32:13;19.88;;;3.35;;
37955;SDS011;23776;51.592;7.180;2023-09-19T01:34:52;22.58;;;4.57;;
37955;SDS011;23776;51.592;7.180;2023-09-19T01:37:23;15.77;;;3.28;;
37955;SDS011;23776;51.592;7.180;2023-09-19T01:43:01;15.07;;;3.35;;
37955;SDS011;23776;51.592;7.180;2023-09-19T01:50:52;14.60;;;3.67;;
37955;SDS011;23776;51.592;7.180;2023-09-19T01:53:27;15.13;;;3.17;;
37955;SDS011;23776;51.592;7.180;2023-09-19T01:56:14;18.08;;;3.65;;
37955;SDS011;23776;51.592;7.180;2023-09-19T01:58:48;11.57;;;2.92;;
37955;SDS011;23776;51.592;7.180;2023-09-19T02:01:18;11.38;;;3.10;;
37955;SDS011;23776;51.592;7.180;2023-09-19T02:03:47;12.10;;;2.72;;
37955;SDS011;23776;51.592;7.180;2023-09-19T02:06:14;19.08;;;3.55;;
37955;SDS011;23776;51.592;7.180;2023-09-19T02:08:40;12.88;;;4.00;;
37955;SDS011;23776;51.592;7.180;2023-09-19T02:11:06;24.45;;;4.38;;
37955;SDS011;23776;51.592;7.180;2023-09-19T02:13:32;21.90;;;3.75;;
37955;SDS011;23776;51.592;7.180;2023-09-19T02:15:57;22.58;;;4.43;;
37955;SDS011;23776;51.592;7.180;2023-09-19T02:18:24;15.18;;;3.22;;
37955;SDS011;23776;51.592;7.180;2023-09-19T02:20:52;16.20;;;3.05;;
37955;SDS011;23776;51.592;7.180;2023-09-19T02:23:18;21.30;;;3.28;;
37955;SDS011;23776;51.592;7.180;2023-09-19T02:25:51;18.35;;;2.75;;
37955;SDS011;23776;51.592;7.180;2023-09-19T02:28:22;11.80;;;3.28;;
37955;SDS011;23776;51.592;7.180;2023-09-19T02:30:48;12.50;;;2.88;;
37955;SDS011;23776;51.592;7.180;2023-09-19T02:33:14;10.48;;;2.45;;
37955;SDS011;23776;51.592;7.180;2023-09-19T02:35:40;19.77;;;3.00;;
37955;SDS011;23776;51.592;7.180;2023-09-19T02:38:05;20.23;;;3.00;;
37955;SDS011;23776;51.592;7.180;2023-09-19T02:40:32;19.00;;;2.63;;
37955;SDS011;23776;51.592;7.180;2023-09-19T02:43:00;14.60;;;3.47;;
37955;SDS011;23776;51.592;7.180;2023-09-19T02:45:27;14.50;;;3.67;;
37955;SDS011;23776;51.592;7.180;2023-09-19T02:47:53;20.05;;;3.40;;
37955;SDS011;23776;51.592;7.180;2023-09-19T02:50:19;11.30;;;2.92;;
37955;SDS011;23776;51.592;7.180;2023-09-19T02:52:45;16.65;;;2.83;;
37955;SDS011;23776;51.592;7.180;2023-09-19T02:55:15;18.15;;;2.88;;
37955;SDS011;23776;51.592;7.180;2023-09-19T02:57:46;18.17;;;3.53;;
37955;SDS011;23776;51.592;7.180;2023-09-19T03:00:12;10.55;;;2.83;;
37955;SDS011;23776;51.592;7.180;2023-09-19T03:02:38;20.65;;;4.18;;
37955;SDS011;23776;51.592;7.180;2023-09-19T03:05:06;15.25;;;2.67;;
37955;SDS011;23776;51.592;7.180;2023-09-19T03:07:32;18.42;;;3.90;;
37955;SDS011;23776;51.592;7.180;2023-09-19T03:09:58;10.82;;;2.78;;
37955;SDS011;23776;51.592;7.180;2023-09-19T03:12:25;14.23;;;2.95;;
37955;SDS011;23776;51.592;7.180;2023-09-19T03:14:51;9.77;;;2.35;;
37955;SDS011;23776;51.592;7.180;2023-09-19T03:17:17;19.55;;;3.28;;
37955;SDS011;23776;51.592;7.180;2023-09-19T03:19:45;9.32;;;2.80;;
37955;SDS011;23776;51.592;7.180;2023-09-19T03:22:12;10.48;;;2.50;;
37955;SDS011;23776;51.592;7.180;2023-09-19T03:24:38;13.52;;;2.45;;
37955;SDS011;23776;51.592;7.180;2023-09-19T03:27:04;9.23;;;2.80;;
37955;SDS011;23776;51.592;7.180;2023-09-19T03:29:29;14.40;;;3.80;;
37955;SDS011;23776;51.592;7.180;2023-09-19T03:31:55;11.98;;;2.88;;
37955;SDS011;23776;51.592;7.180;2023-09-19T03:34:20;18.75;;;3.50;;
37955;SDS011;23776;51.592;7.180;2023-09-19T03:36:46;11.77;;;3.25;;
37955;SDS011;23776;51.592;7.180;2023-09-19T03:39:12;17.85;;;3.03;;
37955;SDS011;23776;51.592;7.180;2023-09-19T03:41:40;15.32;;;3.38;;
37955;SDS011;23776;51.592;7.180;2023-09-19T03:44:06;15.95;;;2.88;;
37955;SDS011;23776;51.592;7.180;2023-09-19T03:46:32;16.23;;;3.15;;
37955;SDS011;23776;51.592;7.180;2023-09-19T03:48:59;12.88;;;3.47;;
37955;SDS011;23776;51.592;7.180;2023-09-19T03:51:25;18.50;;;2.92;;
37955;SDS011;23776;51.592;7.180;2023-09-19T03:53:50;13.90;;;3.50;;
37955;SDS011;23776;51.592;7.180;2023-09-19T03:56:16;17.27;;;2.90;;
37955;SDS011;23776;51.592;7.180;2023-09-19T03:58:42;24.20;;;3.47;;
37955;SDS011;23776;51.592;7.180;2023-09-19T04:01:07;14.82;;;2.78;;
37955;SDS011;23776;51.592;7.180;2023-09-19T04:03:33;13.48;;;3.50;;
37955;SDS011;23776;51.592;7.180;2023-09-19T04:06:13;11.93;;;2.47;;
37955;SDS011;23776;51.592;7.180;2023-09-19T04:08:39;11.80;;;2.92;;
37955;SDS011;23776;51.592;7.180;2023-09-19T04:11:05;12.32;;;2.63;;
37955;SDS011;23776;51.592;7.180;2023-09-19T04:13:31;11.40;;;2.72;;
37955;SDS011;23776;51.592;7.180;2023-09-19T04:15:56;13.73;;;2.65;;
37955;SDS011;23776;51.592;7.180;2023-09-19T04:18:22;7.85;;;2.53;;
37955;SDS011;23776;51.592;7.180;2023-09-19T04:20:51;13.80;;;3.13;;
37955;SDS011;23776;51.592;7.180;2023-09-19T04:23:17;17.08;;;3.13;;
37955;SDS011;23776;51.592;7.180;2023-09-19T04:25:45;15.75;;;3.25;;
37955;SDS011;23776;51.592;7.180;2023-09-19T04:28:10;17.27;;;3.95;;
37955;SDS011;23776;51.592;7.180;2023-09-19T04:30:39;22.13;;;3.67;;
37955;SDS011;23776;51.592;7.180;2023-09-19T04:33:07;14.00;;;4.10;;
37955;SDS011;23776;51.592;7.180;2023-09-19T04:35:33;12.27;;;2.97;;
37955;SDS011;23776;51.592;7.180;2023-09-19T04:37:59;12.32;;;2.33;;
37955;SDS011;23776;51.592;7.180;2023-09-19T04:40:26;14.48;;;2.60;;
37955;SDS011;23776;51.592;7.180;2023-09-19T04:42:57;12.15;;;3.17;;
37955;SDS011;23776;51.592;7.180;2023-09-19T04:45:23;16.98;;;3.13;;
37955;SDS011;23776;51.592;7.180;2023-09-19T04:47:49;17.80;;;2.92;;
37955;SDS011;23776;51.592;7.180;2023-09-19T04:50:15;11.60;;;2.75;;
37955;SDS011;23776;51.592;7.180;2023-09-19T04:52:42;17.88;;;2.88;;
37955;SDS011;23776;51.592;7.180;2023-09-19T04:55:15;13.20;;;3.03;;
37955;SDS011;23776;51.592;7.180;2023-09-19T04:57:50;13.93;;;3.30;;
37955;SDS011;23776;51.592;7.180;2023-09-19T05:00:18;22.40;;;3.03;;
37955;SDS011;23776;51.592;7.180;2023-09-19T05:02:49;15.57;;;2.80;;
37955;SDS011;23776;51.592;7.180;2023-09-19T05:05:16;16.52;;;2.83;;
37955;SDS011;23776;51.592;7.180;2023-09-19T05:07:42;13.52;;;2.80;;
37955;SDS011;23776;51.592;7.180;2023-09-19T05:10:08;13.77;;;2.90;;
37955;SDS011;23776;51.592;7.180;2023-09-19T05:12:35;11.60;;;3.00;;
37955;SDS011;23776;51.592;7.180;2023-09-19T05:15:04;15.52;;;2.85;;
37955;SDS011;23776;51.592;7.180;2023-09-19T05:17:31;12.70;;;2.42;;
37955;SDS011;23776;51.592;7.180;2023-09-19T05:19:58;18.02;;;2.83;;
37955;SDS011;23776;51.592;7.180;2023-09-19T05:22:23;20.65;;;2.78;;
37955;SDS011;23776;51.592;7.180;2023-09-19T05:24:52;13.65;;;2.45;;
37955;SDS011;23776;51.592;7.180;2023-09-19T05:27:18;14.13;;;2.65;;
37955;SDS011;23776;51.592;7.180;2023-09-19T05:29:46;14.48;;;2.85;;
37955;SDS011;23776;51.592;7.180;2023-09-19T05:32:11;16.77;;;2.47;;
37955;SDS011;23776;51.592;7.180;2023-09-19T05:34:37;17.70;;;3.13;;
37955;SDS011;23776;51.592;7.180;2023-09-19T05:37:03;13.05;;;2.83;;
37955;SDS011;23776;51.592;7.180;2023-09-19T05:39:32;17.60;;;2.80;;
37955;SDS011;23776;51.592;7.180;2023-09-19T05:41:58;13.20;;;2.70;;
37955;SDS011;23776;51.592;7.180;2023-09-19T05:44:25;10.13;;;3.30;;
37955;SDS011;23776;51.592;7.180;2023-09-19T05:46:51;11.68;;;2.63;;
37955;SDS011;23776;51.592;7.180;2023-09-19T05:49:17;24.08;;;3.25;;
37955;SDS011;23776;51.592;7.180;2023-09-19T05:51:42;15.07;;;3.17;;
37955;SDS011;23776;51.592;7.180;2023-09-19T05:54:08;16.23;;;3.80;;
37955;SDS011;23776;51.592;7.180;2023-09-19T05:56:34;17.60;;;3.05;;
37955;SDS011;23776;51.592;7.180;2023-09-19T05:58:59;17.45;;;3.50;;
37955;SDS011;23776;51.592;7.180;2023-09-19T06:01:25;12.55;;;2.67;;
37955;SDS011;23776;51.592;7.180;2023-09-19T06:03:52;12.02;;;2.97;;
37955;SDS011;23776;51.592;7.180;2023-09-19T06:06:18;13.80;;;2.35;;
37955;SDS011;23776;51.592;7.180;2023-09-19T06:08:44;13.82;;;2.67;;
37955;SDS011;23776;51.592;7.180;2023-09-19T06:11:09;13.55;;;2.58;;
37955;SDS011;23776;51.592;7.180;2023-09-19T06:13:35;14.30;;;2.38;;
37955;SDS011;23776;51.592;7.180;2023-09-19T06:16:04;11.73;;;2.78;;
37955;SDS011;23776;51.592;7.180;2023-09-19T06:18:30;17.45;;;2.53;;
37955;SDS011;23776;51.592;7.180;2023-09-19T06:20:58;15.05;;;3.10;;
37955;SDS011;23776;51.592;7.180;2023-09-19T06:23:24;16.25;;;3.60;;
37955;SDS011;23776;51.592;7.180;2023-09-19T06:25:52;21.70;;;3.72;;
37955;SDS011;23776;51.592;7.180;2023-09-19T06:28:18;18.05;;;2.90;;
37955;SDS011;23776;51.592;7.180;2023-09-19T06:30:49;13.30;;;2.65;;
37955;SDS011;23776;51.592;7.180;2023-09-19T06:33:14;14.07;;;2.70;;
37955;SDS011;23776;51.592;7.180;2023-09-19T06:35:40;13.05;;;2.83;;
37955;SDS011;23776;51.592;7.180;2023-09-19T06:38:07;14.18;;;3.00;;
37955;SDS011;23776;51.592;7.180;2023-09-19T06:40:33;11.73;;;2.80;;
37955;SDS011;23776;51.592;7.180;2023-09-19T06:42:59;17.60;;;3.33;;
37955;SDS011;23776;51.592;7.180;2023-09-19T06:45:27;19.95;;;3.40;;
37955;SDS011;23776;51.592;7.180;2023-09-19T06:47:53;16.15;;;3.00;;
37955;SDS011;23776;51.592;7.180;2023-09-19T06:50:20;15.68;;;3.20;;
37955;SDS011;23776;51.592;7.180;2023-09-19T06:52:50;16.52;;;2.65;;
37955;SDS011;23776;51.592;7.180;2023-09-19T06:55:18;12.35;;;2.53;;
37955;SDS011;23776;51.592;7.180;2023-09-19T06:57:46;12.52;;;3.05;;
37955;SDS011;23776;51.592;7.180;2023-09-19T07:00:12;11.95;;;2.83;;
37955;SDS011;23776;51.592;7.180;2023-09-19T07:03:05;15.75;;;2.88;;
37955;SDS011;23776;51.592;7.180;2023-09-19T07:05:38;14.32;;;2.50;;
37955;SDS011;23776;51.592;7.180;2023-09-19T07:08:05;15.32;;;2.75;;
37955;SDS011;23776;51.592;7.180;2023-09-19T07:10:32;16.25;;;2.53;;
37955;SDS011;23776;51.592;7.180;2023-09-19T07:13:05;18.25;;;3.30;;
37955;SDS011;23776;51.592;7.180;2023-09-19T07:15:34;15.27;;;2.90;;
37955;SDS011;23776;51.592;7.180;2023-09-19T07:18:06;14.75;;;2.50;;
37955;SDS011;23776;51.592;7.180;2023-09-19T07:20:36;14.15;;;2.55;;
37955;SDS011;23776;51.592;7.180;2023-09-19T07:23:02;10.93;;;2.13;;
37955;SDS011;23776;51.592;7.180;2023-09-19T07:25:28;15.18;;;2.47;;
37955;SDS011;23776;51.592;7.180;2023-09-19T07:27:59;10.00;;;2.70;;
37955;SDS011;23776;51.592;7.180;2023-09-19T07:30:25;13.98;;;2.78;;
37955;SDS011;23776;51.592;7.180;2023-09-19T07:32:51;14.20;;;2.80;;
37955;SDS011;23776;51.592;7.180;2023-09-19T07:35:17;12.77;;;2.22;;
37955;SDS011;23776;51.592;7.180;2023-09-19T07:37:47;16.30;;;2.72;;
37955;SDS011;23776;51.592;7.180;2023-09-19T07:40:17;18.63;;;4.50;;
37955;SDS011;23776;51.592;7.180;2023-09-19T07:42:42;16.83;;;2.92;;
37955;SDS011;23776;51.592;7.180;2023-09-19T07:45:09;14.18;;;2.75;;
37955;SDS011;23776;51.592;7.180;2023-09-19T07:47:39;16.17;;;2.50;;
37955;SDS011;23776;51.592;7.180;2023-09-19T07:50:12;10.55;;;2.03;;
37955;SDS011;23776;51.592;7.180;2023-09-19T07:52:38;12.27;;;2.88;;
37955;SDS011;23776;51.592;7.180;2023-09-19T07:55:07;13.05;;;2.45;;
37955;SDS011;23776;51.592;7.180;2023-09-19T07:57:37;24.98;;;2.80;;
37955;SDS011;23776;51.592;7.180;2023-09-19T08:00:03;16.90;;;2.60;;
37955;SDS011;23776;51.592;7.180;2023-09-19T08:02:35;21.83;;;3.13;;
37955;SDS011;23776;51.592;7.180;2023-09-19T08:05:03;22.70;;;2.92;;
37955;SDS011;23776;51.592;7.180;2023-09-19T08:07:31;14.98;;;2.55;;
37955;SDS011;23776;51.592;7.180;2023-09-19T08:09:57;23.77;;;4.82;;
37955;SDS011;23776;51.592;7.180;2023-09-19T08:12:23;15.88;;;3.15;;
37955;SDS011;23776;51.592;7.180;2023-09-19T08:14:50;18.15;;;3.65;;
37955;SDS011;23776;51.592;7.180;2023-09-19T08:17:15;17.70;;;2.97;;
37955;SDS011;23776;51.592;7.180;2023-09-19T08:19:41;13.57;;;2.72;;
37955;SDS011;23776;51.592;7.180;2023-09-19T08:22:09;16.20;;;3.47;;
37955;SDS011;23776;51.592;7.180;2023-09-19T08:24:36;16.50;;;3.00;;
37955;SDS011;23776;51.592;7.180;2023-09-19T08:27:03;14.70;;;2.78;;
37955;SDS011;23776;51.592;7.180;2023-09-19T08:29:29;13.07;;;3.15;;
37955;SDS011;23776;51.592;7.180;2023-09-19T08:31:56;20.20;;;3.20;;
37955;SDS011;23776;51.592;7.180;2023-09-19T08:34:23;18.05;;;2.92;;
37955;SDS011;23776;51.592;7.180;2023-09-19T08:36:55;17.77;;;3.05;;
37955;SDS011;23776;51.592;7.180;2023-09-19T08:39:23;13.77;;;2.55;;
37955;SDS011;23776;51.592;7.180;2023-09-19T08:41:56;15.75;;;2.50;;
37955;SDS011;23776;51.592;7.180;2023-09-19T08:44:23;25.58;;;3.75;;
37955;SDS011;23776;51.592;7.180;2023-09-19T08:46:49;13.13;;;2.75;;
37955;SDS011;23776;51.592;7.180;2023-09-19T08:52:30;12.70;;;2.70;;
37955;SDS011;23776;51.592;7.180;2023-09-19T08:55:02;19.25;;;2.38;;
37955;SDS011;23776;51.592;7.180;2023-09-19T08:57:35;12.48;;;2.90;;
37955;SDS011;23776;51.592;7.180;2023-09-19T09:00:06;22.02;;;4.90;;
37955;SDS011;23776;51.592;7.180;2023-09-19T09:02:39;11.00;;;2.72;;
37955;SDS011;23776;51.592;7.180;2023-09-19T09:05:07;16.48;;;3.38;;
37955;SDS011;23776;51.592;7.180;2023-09-19T09:07:35;15.45;;;2.85;;
37955;SDS011;23776;51.592;7.180;2023-09-19T09:10:05;19.30;;;3.05;;
37955;SDS011;23776;51.592;7.180;2023-09-19T09:12:31;12.63;;;2.47;;
37955;SDS011;23776;51.592;7.180;2023-09-19T09:14:59;12.13;;;2.65;;
37955;SDS011;23776;51.592;7.180;2023-09-19T09:17:25;15.23;;;3.10;;
37955;SDS011;23776;51.592;7.180;2023-09-19T09:19:54;21.20;;;4.22;;
37955;SDS011;23776;51.592;7.180;2023-09-19T09:22:19;10.68;;;2.30;;
37955;SDS011;23776;51.592;7.180;2023-09-19T09:24:52;14.48;;;2.33;;
37955;SDS011;23776;51.592;7.180;2023-09-19T09:27:19;14.40;;;2.40;;
37955;SDS011;23776;51.592;7.180;2023-09-19T09:29:46;15.55;;;2.63;;
37955;SDS011;23776;51.592;7.180;2023-09-19T09:32:16;13.70;;;2.72;;
37955;SDS011;23776;51.592;7.180;2023-09-19T09:34:43;15.25;;;2.85;;
37955;SDS011;23776;51.592;7.180;2023-09-19T09:37:16;9.55;;;1.95;;
37955;SDS011;23776;51.592;7.180;2023-09-19T09:39:52;16.30;;;2.85;;
37955;SDS011;23776;51.592;7.180;2023-09-19T09:42:35;16.33;;;2.90;;
37955;SDS011;23776;51.592;7.180;2023-09-19T09:47:59;12.75;;;2.63;;
37955;SDS011;23776;51.592;7.180;2023-09-19T09:55:57;17.65;;;2.78;;
37955;SDS011;23776;51.592;7.180;2023-09-19T09:58:50;16.60;;;3.05;;
37955;SDS011;23776;51.592;7.180;2023-09-19T10:01:19;16.70;;;2.35;;
37955;SDS011;23776;51.592;7.180;2023-09-19T10:03:46;14.23;;;2.47;;
37955;SDS011;23776;51.592;7.180;2023-09-19T10:06:17;11.02;;;2.15;;
37955;SDS011;23776;51.592;7.180;2023-09-19T10:08:58;14.52;;;2.75;;
37955;SDS011;23776;51.592;7.180;2023-09-19T10:14:10;21.23;;;3.03;;
37955;SDS011;23776;51.592;7.180;2023-09-19T10:16:40;13.10;;;3.13;;
37955;SDS011;23776;51.592;7.180;2023-09-19T10:19:26;9.90;;;2.05;;
37955;SDS011;23776;51.592;7.180;2023-09-19T10:22:11;14.10;;;2.17;;
37955;SDS011;23776;51.592;7.180;2023-09-19T10:24:45;16.73;;;2.60;;
37955;SDS011;23776;51.592;7.180;2023-09-19T10:27:12;13.40;;;2.50;;
37955;SDS011;23776;51.592;7.180;2023-09-19T10:29:45;10.47;;;2.33;;
37955;SDS011;23776;51.592;7.180;2023-09-19T10:32:15;13.57;;;2.28;;
37955;SDS011;23776;51.592;7.180;2023-09-19T10:34:44;12.30;;;2.15;;
37955;SDS011;23776;51.592;7.180;2023-09-19T10:37:12;12.27;;;2.42;;
37955;SDS011;23776;51.592;7.180;2023-09-19T10:39:40;13.18;;;2.50;;
37955;SDS011;23776;51.592;7.180;2023-09-19T10:42:06;19.25;;;3.03;;
37955;SDS011;23776;51.592;7.180;2023-09-19T10:44:37;10.98;;;2.45;;
37955;SDS011;23776;51.592;7.180;2023-09-19T10:47:09;14.80;;;3.28;;
37955;SDS011;23776;51.592;7.180;2023-09-19T10:49:42;17.52;;;2.85;;
37955;SDS011;23776;51.592;7.180;2023-09-19T10:52:11;9.77;;;2.45;;
37955;SDS011;23776;51.592;7.180;2023-09-19T10:54:44;9.77;;;2.27;;
37955;SDS011;23776;51.592;7.180;2023-09-19T10:57:14;12.30;;;3.13;;
37955;SDS011;23776;51.592;7.180;2023-09-19T11:00:05;10.27;;;2.35;;
37955;SDS011;23776;51.592;7.180;2023-09-19T11:05:36;12.27;;;2.75;;
37955;SDS011;23776;51.592;7.180;2023-09-19T11:08:09;15.43;;;2.75;;
37955;SDS011;23776;51.592;7.180;2023-09-19T11:26:49;10.63;;;2.58;;
37955;SDS011;23776;51.592;7.180;2023-09-19T11:29:26;16.40;;;2.63;;
37955;SDS011;23776;51.592;7.180;2023-09-19T11:31:54;12.13;;;2.38;;
37955;SDS011;23776;51.592;7.180;2023-09-19T11:40:07;10.25;;;2.95;;
37955;SDS011;23776;51.592;7.180;2023-09-19T11:42:47;12.98;;;2.10;;
37955;SDS011;23776;51.592;7.180;2023-09-19T11:48:18;14.90;;;2.38;;
37955;SDS011;23776;51.592;7.180;2023-09-19T11:50:44;10.18;;;2.00;;
37955;SDS011;23776;51.592;7.180;2023-09-19T11:53:12;10.10;;;2.58;;
37955;SDS011;23776;51.592;7.180;2023-09-19T11:55:39;8.02;;;2.35;;
37955;SDS011;23776;51.592;7.180;2023-09-19T11:58:08;10.77;;;2.33;;
37955;SDS011;23776;51.592;7.180;2023-09-19T12:00:34;8.50;;;2.22;;
37955;SDS011;23776;51.592;7.180;2023-09-19T12:03:03;10.80;;;2.50;;
37955;SDS011;23776;51.592;7.180;2023-09-19T12:05:44;15.32;;;2.55;;
37955;SDS011;23776;51.592;7.180;2023-09-19T12:08:09;10.55;;;2.45;;
37955;SDS011;23776;51.592;7.180;2023-09-19T12:10:47;14.13;;;2.60;;
37955;SDS011;23776;51.592;7.180;2023-09-19T12:13:16;12.77;;;2.67;;
37955;SDS011;23776;51.592;7.180;2023-09-19T12:15:42;11.88;;;2.35;;
37955;SDS011;23776;51.592;7.180;2023-09-19T12:18:10;11.32;;;2.03;;
37955;SDS011;23776;51.592;7.180;2023-09-19T12:20:51;14.15;;;2.38;;
37955;SDS011;23776;51.592;7.180;2023-09-19T12:23:17;12.02;;;2.30;;
37955;SDS011;23776;51.592;7.180;2023-09-19T12:25:43;8.20;;;2.20;;
37955;SDS011;23776;51.592;7.180;2023-09-19T12:28:11;12.73;;;2.67;;
37955;SDS011;23776;51.592;7.180;2023-09-19T12:30:37;6.85;;;2.13;;
37955;SDS011;23776;51.592;7.180;2023-09-19T12:33:14;7.95;;;2.10;;
37955;SDS011;23776;51.592;7.180;2023-09-19T12:35:41;9.00;;;2.05;;
37955;SDS011;23776;51.592;7.180;2023-09-19T12:38:08;13.07;;;2.55;;
37955;SDS011;23776;51.592;7.180;2023-09-19T12:40:35;9.23;;;2.22;;
37955;SDS011;23776;51.592;7.180;2023-09-19T12:43:03;7.97;;;2.40;;
37955;SDS011;23776;51.592;7.180;2023-09-19T12:45:30;9.07;;;2.17;;
37955;SDS011;23776;51.592;7.180;2023-09-19T12:51:10;11.02;;;2.22;;
37955;SDS011;23776;51.592;7.180;2023-09-19T12:56:07;7.63;;;2.05;;
37955;SDS011;23776;51.592;7.180;2023-09-19T12:58:52;12.45;;;3.13;;
37955;SDS011;23776;51.592;7.180;2023-09-19T13:01:19;6.53;;;1.80;;
37955;SDS011;23776;51.592;7.180;2023-09-19T13:03:46;11.38;;;2.05;;
37955;SDS011;23776;51.592;7.180;2023-09-19T13:06:35;5.43;;;1.60;;
37955;SDS011;23776;51.592;7.180;2023-09-19T13:09:08;10.82;;;2.05;;
37955;SDS011;23776;51.592;7.180;2023-09-19T13:11:38;8.93;;;2.03;;
37955;SDS011;23776;51.592;7.180;2023-09-19T13:19:44;11.93;;;2.10;;
37955;SDS011;23776;51.592;7.180;2023-09-19T13:25:04;8.05;;;2.10;;
37955;SDS011;23776;51.592;7.180;2023-09-19T13:27:39;10.63;;;1.85;;
37955;SDS011;23776;51.592;7.180;2023-09-19T13:30:06;11.73;;;2.58;;
37955;SDS011;23776;51.592;7.180;2023-09-19T13:32:32;8.63;;;1.92;;
37955;SDS011;23776;51.592;7.180;2023-09-19T13:34:58;5.95;;;1.83;;
37955;SDS011;23776;51.592;7.180;2023-09-19T13:37:24;10.18;;;1.98;;
37955;SDS011;23776;51.592;7.180;2023-09-19T13:39:51;10.88;;;1.77;;
37955;SDS011;23776;51.592;7.180;2023-09-19T13:42:17;9.50;;;1.90;;
37955;SDS011;23776;51.592;7.180;2023-09-19T13:44:43;9.60;;;1.48;;
37955;SDS011;23776;51.592;7.180;2023-09-19T13:47:09;7.40;;;1.60;;
37955;SDS011;23776;51.592;7.180;2023-09-19T13:49:35;7.32;;;1.80;;
37955;SDS011;23776;51.592;7.180;2023-09-19T13:52:02;6.57;;;1.50;;
37955;SDS011;23776;51.592;7.180;2023-09-19T13:54:32;9.07;;;1.67;;
37955;SDS011;23776;51.592;7.180;2023-09-19T13:56:58;13.80;;;1.80;;
37955;SDS011;23776;51.592;7.180;2023-09-19T13:59:23;14.65;;;1.42;;
37955;SDS011;23776;51.592;7.180;2023-09-19T14:01:49;7.85;;;2.13;;
37955;SDS011;23776;51.592;7.180;2023-09-19T14:04:19;9.32;;;1.42;;
37955;SDS011;23776;51.592;7.180;2023-09-19T14:06:46;6.40;;;2.20;;
37955;SDS011;23776;51.592;7.180;2023-09-19T14:09:12;6.57;;;1.50;;
37955;SDS011;23776;51.592;7.180;2023-09-19T14:11:39;8.27;;;1.25;;
37955;SDS011;23776;51.592;7.180;2023-09-19T14:14:05;11.68;;;1.67;;
37955;SDS011;23776;51.592;7.180;2023-09-19T14:16:30;7.40;;;1.27;;
37955;SDS011;23776;51.592;7.180;2023-09-19T14:18:59;6.15;;;1.42;;
37955;SDS011;23776;51.592;7.180;2023-09-19T14:21:25;6.30;;;1.33;;
37955;SDS011;23776;51.592;7.180;2023-09-19T14:23:51;9.73;;;1.80;;
37955;SDS011;23776;51.592;7.180;2023-09-19T14:26:19;9.10;;;1.67;;
37955;SDS011;23776;51.592;7.180;2023-09-19T14:28:45;6.95;;;1.55;;
37955;SDS011;23776;51.592;7.180;2023-09-19T14:31:11;5.78;;;1.20;;
37955;SDS011;23776;51.592;7.180;2023-09-19T14:33:37;9.07;;;1.42;;
37955;SDS011;23776;51.592;7.180;2023-09-19T14:36:07;6.10;;;1.10;;
37955;SDS011;23776;51.592;7.180;2023-09-19T14:38:34;6.88;;;1.02;;
37955;SDS011;23776;51.592;7.180;2023-09-19T14:41:01;7.35;;;1.63;;
37955;SDS011;23776;51.592;7.180;2023-09-19T14:43:29;7.15;;;1.40;;
37955;SDS011;23776;51.592;7.180;2023-09-19T14:45:55;9.70;;;2.03;;
37955;SDS011;23776;51.592;7.180;2023-09-19T14:48:22;5.55;;;1.30;;
37955;SDS011;23776;51.592;7.180;2023-09-19T14:50:51;10.13;;;1.38;;
37955;SDS011;23776;51.592;7.180;2023-09-19T14:53:17;5.72;;;1.20;;
37955;SDS011;23776;51.592;7.180;2023-09-19T14:55:43;7.82;;;1.45;;
37955;SDS011;23776;51.592;7.180;2023-09-19T14:58:10;8.23;;;1.98;;
37955;SDS011;23776;51.592;7.180;2023-09-19T15:00:37;5.80;;;1.15;;
37955;SDS011;23776;51.592;7.180;2023-09-19T15:03:03;9.95;;;1.10;;
37955;SDS011;23776;51.592;7.180;2023-09-19T15:05:29;7.20;;;1.30;;
37955;SDS011;23776;51.592;7.180;2023-09-19T15:07:55;5.22;;;1.20;;
37955;SDS011;23776;51.592;7.180;2023-09-19T15:10:22;5.00;;;1.10;;
37955;SDS011;23776;51.592;7.180;2023-09-19T15:12:48;7.90;;;1.55;;
37955;SDS011;23776;51.592;7.180;2023-09-19T15:15:14;2.25;;;1.08;;
37955;SDS011;23776;51.592;7.180;2023-09-19T15:17:39;6.75;;;1.40;;
37955;SDS011;23776;51.592;7.180;2023-09-19T15:20:05;5.88;;;1.50;;
37955;SDS011;23776;51.592;7.180;2023-09-19T15:22:32;9.02;;;2.17;;
37955;SDS011;23776;51.592;7.180;2023-09-19T15:24:59;8.98;;;1.67;;
37955;SDS011;23776;51.592;7.180;2023-09-19T15:27:26;4.78;;;1.23;;
37955;SDS011;23776;51.592;7.180;2023-09-19T15:29:53;4.20;;;1.38;;
37955;SDS011;23776;51.592;7.180;2023-09-19T15:32:19;4.60;;;1.23;;
37955;SDS011;23776;51.592;7.180;2023-09-19T15:34:45;6.35;;;1.20;;
37955;SDS011;23776;51.592;7.180;2023-09-19T15:37:12;12.80;;;1.48;;
37955;SDS011;23776;51.592;7.180;2023-09-19T15:39:38;3.95;;;0.95;;
37955;SDS011;23776;51.592;7.180;2023-09-19T15:42:04;12.35;;;1.13;;
37955;SDS011;23776;51.592;7.180;2023-09-19T15:44:29;8.73;;;1.48;;
37955;SDS011;23776;51.592;7.180;2023-09-19T15:46:56;6.10;;;1.20;;
37955;SDS011;23776;51.592;7.180;2023-09-19T15:49:22;5.10;;;0.90;;
37955;SDS011;23776;51.592;7.180;2023-09-19T15:51:47;7.35;;;1.08;;
37955;SDS011;23776;51.592;7.180;2023-09-19T15:54:14;3.40;;;1.17;;
37955;SDS011;23776;51.592;7.180;2023-09-19T15:56:41;4.97;;;1.08;;
37955;SDS011;23776;51.592;7.180;2023-09-19T15:59:10;7.53;;;1.30;;
37955;SDS011;23776;51.592;7.180;2023-09-19T16:01:40;6.70;;;1.48;;
37955;SDS011;23776;51.592;7.180;2023-09-19T16:04:07;3.67;;;0.95;;